Time;durP1;ratioP1;P1;durP2;ratioP2;P2;SDS_P1;SDS_P2;PMS_P1;PMS_P2;Temp;Humidity;BMP_temperature;BMP_pressure;BME280_temperature;BME280_humidity;BME280_pressure;Samples;Min_cycle;Max_cycle;Signal;HPM_P1;HPM_P2
2023/12/29 00:01:52;;;;;;;59.60;54.58;;;;;;;;;;4165111;28;20095;-60
2023/12/29 00:03:54;;;;;;;56.92;52.28;;;;;;;;;;4164998;28;20054;-59
2023/12/29 00:05:55;;;;;;;55.83;51.33;;;;;;;;;;4165294;28;20124;-59
2023/12/29 00:07:57;;;;;;;53.85;49.50;;;;;;;;;;4165327;28;20083;-59
2023/12/29 00:09:59;;;;;;;57.25;52.78;;;;;;;;;;4168706;28;20041;-59
2023/12/29 00:12:01;;;;;;;57.60;52.63;;;;;;;;;;4164961;28;20436;-60
2023/12/29 00:14:02;;;;;;;56.60;51.83;;;;;;;;;;4165073;28;20037;-59
2023/12/29 00:16:04;;;;;;;55.67;51.27;;;;;;;;;;4149818;28;20038;-59
2023/12/29 00:18:06;;;;;;;58.15;53.42;;;;;;;;;;4165078;28;20034;-59
2023/12/29 00:20:08;;;;;;;56.03;51.55;;;;;;;;;;4158407;28;20584;-60
2023/12/29 00:22:12;;;;;;;53.25;49.13;;;;;;;;;;4160190;28;20052;-59
2023/12/29 00:24:14;;;;;;;57.73;52.77;;;;;;;;;;4164966;28;20048;-59
2023/12/29 00:26:16;;;;;;;57.58;52.47;;;;;;;;;;4164973;28;20779;-60
2023/12/29 00:28:18;;;;;;;61.13;55.78;;;;;;;;;;4169181;28;20132;-59
2023/12/29 00:30:20;;;;;;;63.47;58.07;;;;;;;;;;4171282;28;20096;-60
2023/12/29 00:32:21;;;;;;;61.35;56.17;;;;;;;;;;4164782;28;20345;-59
2023/12/29 00:34:23;;;;;;;60.35;55.15;;;;;;;;;;4163552;28;20488;-59
2023/12/29 00:36:28;;;;;;;59.90;54.55;;;;;;;;;;4164744;28;20037;-60
2023/12/29 00:38:29;;;;;;;57.07;52.47;;;;;;;;;;4147246;28;20141;-60
2023/12/29 00:40:31;;;;;;;62.17;56.75;;;;;;;;;;4146937;28;20053;-59
2023/12/29 00:42:32;;;;;;;60.63;55.13;;;;;;;;;;4164781;28;20398;-59
2023/12/29 00:44:35;;;;;;;60.27;55.13;;;;;;;;;;4146983;28;20038;-59
2023/12/29 00:46:36;;;;;;;55.38;50.38;;;;;;;;;;4164628;28;20128;-59
2023/12/29 00:48:38;;;;;;;52.17;47.97;;;;;;;;;;4164070;28;20041;-59
2023/12/29 00:50:40;;;;;;;51.90;48.15;;;;;;;;;;4147118;28;20395;-59
2023/12/29 00:52:42;;;;;;;56.17;51.75;;;;;;;;;;4172890;28;20056;-59
2023/12/29 00:54:43;;;;;;;58.50;53.33;;;;;;;;;;4171086;28;20048;-59
2023/12/29 00:56:48;;;;;;;57.85;53.42;;;;;;;;;;4164499;28;20043;-59
2023/12/29 00:58:50;;;;;;;55.53;51.20;;;;;;;;;;4164435;28;20539;-58
2023/12/29 01:00:52;;;;;;;57.60;52.90;;;;;;;;;;4164213;28;20520;-59
2023/12/29 01:02:53;;;;;;;59.03;53.80;;;;;;;;;;4164310;28;20095;-59
2023/12/29 01:04:55;;;;;;;57.05;51.92;;;;;;;;;;4148292;28;20046;-59
2023/12/29 01:06:57;;;;;;;52.13;47.83;;;;;;;;;;4163569;28;20409;-60
2023/12/29 01:08:59;;;;;;;55.63;51.40;;;;;;;;;;4168887;28;20042;-59
2023/12/29 01:11:00;;;;;;;55.55;51.05;;;;;;;;;;4163594;28;20530;-59
2023/12/29 01:13:02;;;;;;;55.35;50.92;;;;;;;;;;4145934;28;20046;-59
2023/12/29 01:15:04;;;;;;;61.33;56.23;;;;;;;;;;4163570;28;20047;-59
2023/12/29 01:17:06;;;;;;;54.95;50.55;;;;;;;;;;4163564;28;20041;-59
2023/12/29 01:19:07;;;;;;;59.38;54.08;;;;;;;;;;4163511;28;20456;-59
2023/12/29 01:21:09;;;;;;;59.73;54.33;;;;;;;;;;4163491;28;20128;-59
2023/12/29 01:23:11;;;;;;;61.20;55.43;;;;;;;;;;4163517;28;20120;-59
2023/12/29 01:25:12;;;;;;;59.83;54.13;;;;;;;;;;4173197;28;20048;-59
2023/12/29 01:27:14;;;;;;;59.38;54.35;;;;;;;;;;4165330;28;20044;-59
2023/12/29 01:29:16;;;;;;;56.43;51.90;;;;;;;;;;4163471;28;20156;-59
2023/12/29 01:31:17;;;;;;;59.35;54.25;;;;;;;;;;4163543;28;20429;-59
2023/12/29 01:33:21;;;;;;;60.67;55.90;;;;;;;;;;4163302;28;20046;-59
2023/12/29 01:35:23;;;;;;;58.50;53.45;;;;;;;;;;4163301;28;20037;-59
2023/12/29 01:37:24;;;;;;;58.90;54.22;;;;;;;;;;4163358;28;20481;-59
2023/12/29 01:39:26;;;;;;;54.05;49.75;;;;;;;;;;4163340;28;20451;-59
2023/12/29 01:41:27;;;;;;;55.00;50.60;;;;;;;;;;4163229;28;20555;-60
2023/12/29 01:43:29;;;;;;;55.67;51.30;;;;;;;;;;4163372;28;20049;-58
2023/12/29 01:45:31;;;;;;;59.57;54.97;;;;;;;;;;4163088;28;20049;-59
2023/12/29 01:47:36;;;;;;;56.88;52.45;;;;;;;;;;4163304;28;20292;-59
2023/12/29 01:49:38;;;;;;;56.43;51.43;;;;;;;;;;4163361;28;20048;-59
2023/12/29 01:51:40;;;;;;;55.40;51.17;;;;;;;;;;4163137;28;20523;-59
2023/12/29 01:53:42;;;;;;;58.53;53.88;;;;;;;;;;4162402;28;20040;-59
2023/12/29 01:55:49;;;;;;;57.60;52.75;;;;;;;;;;4162982;28;20045;-59
2023/12/29 01:57:51;;;;;;;58.63;53.67;;;;;;;;;;4162433;28;20256;-59
2023/12/29 01:59:52;;;;;;;56.80;51.93;;;;;;;;;;4163066;28;20033;-59
2023/12/29 02:01:57;;;;;;;58.33;53.70;;;;;;;;;;4049980;23;3631095;-62
2023/12/29 02:03:59;;;;;;;55.10;50.55;;;;;;;;;;4150687;28;20053;-61
2023/12/29 02:06:01;;;;;;;56.95;51.67;;;;;;;;;;4150511;28;20119;-61
2023/12/29 02:08:03;;;;;;;54.55;50.08;;;;;;;;;;4151518;28;20084;-62
2023/12/29 02:10:13;;;;;;;57.33;52.05;;;;;;;;;;4165910;28;20045;-61
2023/12/29 02:12:15;;;;;;;59.88;55.20;;;;;;;;;;4166939;28;20132;-61
2023/12/29 02:14:18;;;;;;;60.63;55.47;;;;;;;;;;4152188;28;20107;-61
2023/12/29 02:16:39;;;;;;;60.53;55.20;;;;;;;;;;4135323;28;20053;-61
2023/12/29 02:18:42;;;;;;;61.03;55.70;;;;;;;;;;4150541;28;20460;-62
2023/12/29 02:20:44;;;;;;;57.63;52.72;;;;;;;;;;4154088;28;20445;-61
2023/12/29 02:22:46;;;;;;;58.45;53.63;;;;;;;;;;4159237;28;20042;-61
2023/12/29 02:24:48;;;;;;;60.28;54.63;;;;;;;;;;4150694;28;20061;-61
2023/12/29 02:26:49;;;;;;;;;;;;;;;;;;4149466;28;20100;-61
2023/12/29 02:28:55;;;;;;;57.50;52.63;;;;;;;;;;4150308;28;19925;-61
2023/12/29 02:31:00;;;;;;;60.83;55.25;;;;;;;;;;4150593;28;20045;-61
2023/12/29 02:33:04;;;;;;;60.90;54.70;;;;;;;;;;4150250;28;20485;-61
2023/12/29 02:35:08;;;;;;;56.28;51.55;;;;;;;;;;4150053;28;20034;-61
2023/12/29 02:37:10;;;;;;;57.90;53.22;;;;;;;;;;4149665;28;20038;-61
2023/12/29 02:39:12;;;;;;;54.25;49.97;;;;;;;;;;4148483;28;20045;-61
2023/12/29 02:41:14;;;;;;;53.35;48.63;;;;;;;;;;4148486;28;20434;-61
2023/12/29 02:43:16;;;;;;;;;;;;;;;;;;4149073;28;20568;-61
2023/12/29 02:45:18;;;;;;;55.08;50.42;;;;;;;;;;4150428;28;19979;-61
2023/12/29 02:47:21;;;;;;;60.47;54.75;;;;;;;;;;4130932;28;20081;-61
2023/12/29 02:49:23;;;;;;;55.78;50.88;;;;;;;;;;4148556;28;20038;-61
2023/12/29 02:51:24;;;;;;;56.33;51.70;;;;;;;;;;4148585;28;20034;-61
2023/12/29 02:53:26;;;;;;;60.00;54.63;;;;;;;;;;4150267;28;20388;-61
2023/12/29 02:55:27;;;;;;;59.40;53.80;;;;;;;;;;4149917;28;20474;-61
2023/12/29 02:57:29;;;;;;;58.03;52.90;;;;;;;;;;4150215;28;20070;-61
2023/12/29 02:59:31;;;;;;;61.65;56.33;;;;;;;;;;4149665;28;20042;-61
2023/12/29 03:01:33;;;;;;;54.85;50.22;;;;;;;;;;4149432;28;20037;-61
2023/12/29 03:03:34;;;;;;;56.05;51.70;;;;;;;;;;4149865;28;20394;-61
2023/12/29 03:05:36;;;;;;;56.73;52.20;;;;;;;;;;4149812;28;20049;-61
2023/12/29 03:07:39;;;;;;;56.65;51.13;;;;;;;;;;4149880;28;20045;-61
2023/12/29 03:09:41;;;;;;;55.53;50.80;;;;;;;;;;4156836;28;20049;-61
2023/12/29 03:11:42;;;;;;;52.08;47.58;;;;;;;;;;4149399;28;20042;-61
2023/12/29 03:13:44;;;;;;;53.00;48.63;;;;;;;;;;4148418;28;20073;-61
2023/12/29 03:15:45;;;;;;;53.63;49.47;;;;;;;;;;4149576;28;20046;-61
2023/12/29 03:17:47;;;;;;;51.23;47.53;;;;;;;;;;4149642;28;20069;-61
2023/12/29 03:19:49;;;;;;;51.72;47.97;;;;;;;;;;4149798;28;20363;-61
2023/12/29 03:21:51;;;;;;;53.90;48.92;;;;;;;;;;4149490;28;20045;-61
2023/12/29 03:23:52;;;;;;;53.10;48.88;;;;;;;;;;4149506;28;20494;-61
2023/12/29 03:25:54;;;;;;;53.97;49.23;;;;;;;;;;4149534;28;20041;-61
2023/12/29 03:27:55;;;;;;;55.22;50.35;;;;;;;;;;4149482;28;20092;-61
2023/12/29 03:29:57;;;;;;;54.80;50.43;;;;;;;;;;4149682;28;20054;-61
2023/12/29 03:31:59;;;;;;;54.35;49.60;;;;;;;;;;4149657;28;20046;-61
2023/12/29 03:34:00;;;;;;;54.10;49.90;;;;;;;;;;4131942;28;20051;-61
2023/12/29 03:36:02;;;;;;;57.72;52.80;;;;;;;;;;4149453;28;20484;-61
2023/12/29 03:38:04;;;;;;;52.78;48.83;;;;;;;;;;4149292;28;20042;-61
2023/12/29 03:40:06;;;;;;;56.30;51.83;;;;;;;;;;4149300;28;20065;-61
2023/12/29 03:42:07;;;;;;;56.40;52.00;;;;;;;;;;4149272;28;20046;-61
2023/12/29 03:44:09;;;;;;;60.25;55.20;;;;;;;;;;4149532;28;20428;-61
2023/12/29 03:46:20;;;;;;;56.53;52.37;;;;;;;;;;4146621;28;20453;-61
2023/12/29 03:48:22;;;;;;;54.22;50.05;;;;;;;;;;4149096;28;20417;-61
2023/12/29 03:50:24;;;;;;;59.27;54.37;;;;;;;;;;4148984;28;20069;-61
2023/12/29 03:52:25;;;;;;;56.87;52.00;;;;;;;;;;4151824;28;20108;-61
2023/12/29 03:54:27;;;;;;;59.43;54.03;;;;;;;;;;4149094;28;20038;-61
2023/12/29 03:56:28;;;;;;;54.77;49.90;;;;;;;;;;4148817;28;20042;-61
2023/12/29 03:58:30;;;;;;;55.80;50.67;;;;;;;;;;4149197;28;20069;-61
2023/12/29 04:00:32;;;;;;;55.72;51.20;;;;;;;;;;4148995;28;20073;-61
2023/12/29 04:02:33;;;;;;;51.85;47.60;;;;;;;;;;4148717;28;20136;-61
2023/12/29 04:04:38;;;;;;;56.17;51.30;;;;;;;;;;4148863;28;20070;-61
2023/12/29 04:06:40;;;;;;;53.63;49.30;;;;;;;;;;4148853;28;20073;-61
2023/12/29 04:08:42;;;;;;;55.00;50.47;;;;;;;;;;4155011;28;20505;-61
2023/12/29 04:10:43;;;;;;;61.75;55.33;;;;;;;;;;4150449;28;20073;-61
2023/12/29 04:12:45;;;;;;;59.55;54.60;;;;;;;;;;4148872;28;20378;-61
2023/12/29 04:14:47;;;;;;;58.58;54.08;;;;;;;;;;4149144;28;20481;-61
2023/12/29 04:16:48;;;;;;;55.00;50.35;;;;;;;;;;4148693;28;20133;-61
2023/12/29 04:18:50;;;;;;;54.47;50.10;;;;;;;;;;4131403;28;20081;-61
2023/12/29 04:20:51;;;;;;;55.78;51.50;;;;;;;;;;4148399;28;20041;-61
2023/12/29 04:22:53;;;;;;;54.60;50.00;;;;;;;;;;4148695;28;20076;-61
2023/12/29 04:24:55;;;;;;;58.07;53.47;;;;;;;;;;4147933;28;20402;-62
2023/12/29 04:26:56;;;;;;;57.92;53.25;;;;;;;;;;4148620;28;20049;-61
2023/12/29 04:28:58;;;;;;;56.60;51.95;;;;;;;;;;4148662;28;20445;-61
2023/12/29 04:30:59;;;;;;;54.58;50.50;;;;;;;;;;4148422;28;20046;-61
2023/12/29 04:33:01;;;;;;;51.47;47.50;;;;;;;;;;4148381;28;20045;-61
2023/12/29 04:35:03;;;;;;;55.90;51.80;;;;;;;;;;4148630;28;20073;-61
2023/12/29 04:37:05;;;;;;;54.67;50.40;;;;;;;;;;4148302;28;20311;-61
2023/12/29 04:39:09;;;;;;;55.40;51.10;;;;;;;;;;4148640;28;20046;-61
2023/12/29 04:41:14;;;;;;;53.25;49.28;;;;;;;;;;4148810;28;20496;-61
2023/12/29 04:43:16;;;;;;;57.15;52.28;;;;;;;;;;4130824;28;20054;-61
2023/12/29 04:45:17;;;;;;;56.73;52.23;;;;;;;;;;4148265;28;20057;-61
2023/12/29 04:47:19;;;;;;;57.08;52.65;;;;;;;;;;4148230;28;20641;-62
2023/12/29 04:49:21;;;;;;;52.80;48.95;;;;;;;;;;4148229;28;20409;-61
2023/12/29 04:51:22;;;;;;;44.13;40.92;;;;;;;;;;4148248;28;20053;-61
2023/12/29 04:53:24;;;;;;;47.13;44.08;;;;;;;;;;4148359;28;20038;-61
2023/12/29 04:55:26;;;;;;;44.85;41.88;;;;;;;;;;4148139;28;20034;-61
2023/12/29 04:57:27;;;;;;;57.05;52.50;;;;;;;;;;4148160;28;20037;-61
2023/12/29 04:59:29;;;;;;;56.13;51.47;;;;;;;;;;4148195;28;20125;-61
2023/12/29 05:01:30;;;;;;;56.70;52.13;;;;;;;;;;4147752;28;20064;-61
2023/12/29 05:03:32;;;;;;;57.50;52.73;;;;;;;;;;4148010;28;20054;-61
2023/12/29 05:05:34;;;;;;;52.10;47.93;;;;;;;;;;4148225;28;20076;-61
2023/12/29 05:07:35;;;;;;;53.73;49.73;;;;;;;;;;4147978;28;20284;-61
2023/12/29 05:09:37;;;;;;;55.85;51.72;;;;;;;;;;4157102;28;20073;-61
2023/12/29 05:11:39;;;;;;;54.85;50.60;;;;;;;;;;4145887;28;20046;-61
2023/12/29 05:13:40;;;;;;;50.80;46.80;;;;;;;;;;4142247;28;20039;-61
2023/12/29 05:15:42;;;;;;;52.93;48.73;;;;;;;;;;4140429;28;20046;-61
2023/12/29 05:17:44;;;;;;;47.05;43.83;;;;;;;;;;4144708;28;20042;-61
2023/12/29 05:19:45;;;;;;;49.30;45.83;;;;;;;;;;4147855;28;20560;-62
2023/12/29 05:21:49;;;;;;;54.67;50.20;;;;;;;;;;4147816;28;20105;-61
2023/12/29 05:23:51;;;;;;;53.08;48.83;;;;;;;;;;4128680;28;20085;-61
2023/12/29 05:25:53;;;;;;;45.97;42.60;;;;;;;;;;4147430;28;20084;-61
2023/12/29 05:27:54;;;;;;;55.80;51.33;;;;;;;;;;4147652;28;20453;-61
2023/12/29 05:29:56;;;;;;;54.63;50.20;;;;;;;;;;4147638;28;20292;-61
2023/12/29 05:31:57;;;;;;;52.60;48.35;;;;;;;;;;4147806;28;20531;-61
2023/12/29 05:33:59;;;;;;;51.77;47.97;;;;;;;;;;4147924;28;20088;-61
2023/12/29 05:36:07;;;;;;;50.08;46.75;;;;;;;;;;4147825;28;20048;-61
2023/12/29 05:38:09;;;;;;;47.92;44.33;;;;;;;;;;4147659;28;20143;-61
2023/12/29 05:40:11;;;;;;;47.28;43.97;;;;;;;;;;4147804;28;20056;-61
2023/12/29 05:42:12;;;;;;;46.88;43.53;;;;;;;;;;4147482;28;20056;-60
2023/12/29 05:44:15;;;;;;;45.35;42.10;;;;;;;;;;4147743;28;20056;-61
2023/12/29 05:46:16;;;;;;;44.80;41.67;;;;;;;;;;4147510;28;20037;-61
2023/12/29 05:48:18;;;;;;;44.42;41.60;;;;;;;;;;4147476;28;20113;-61
2023/12/29 05:50:20;;;;;;;52.38;48.38;;;;;;;;;;4147524;28;20125;-61
2023/12/29 05:52:22;;;;;;;54.50;50.23;;;;;;;;;;4152387;28;20091;-61
2023/12/29 05:54:24;;;;;;;47.40;44.15;;;;;;;;;;4147906;28;20038;-62
2023/12/29 05:56:26;;;;;;;50.60;47.05;;;;;;;;;;4147431;28;20410;-61
2023/12/29 05:58:27;;;;;;;56.70;52.20;;;;;;;;;;4147794;28;20045;-61
2023/12/29 06:00:29;;;;;;;56.03;52.03;;;;;;;;;;4147224;28;20042;-61
2023/12/29 06:02:31;;;;;;;52.87;49.27;;;;;;;;;;4129829;28;20054;-61
2023/12/29 06:04:32;;;;;;;48.33;44.63;;;;;;;;;;4147436;28;20288;-61
2023/12/29 06:06:34;;;;;;;51.45;47.72;;;;;;;;;;4147404;28;20477;-61
2023/12/29 06:08:36;;;;;;;63.38;57.45;;;;;;;;;;4152308;28;20054;-62
2023/12/29 06:10:37;;;;;;;57.30;52.08;;;;;;;;;;4151871;28;20042;-61
2023/12/29 06:12:39;;;;;;;54.63;50.47;;;;;;;;;;4146084;28;20421;-62
2023/12/29 06:14:40;;;;;;;49.50;46.00;;;;;;;;;;4146820;28;20074;-61
2023/12/29 06:16:42;;;;;;;48.33;44.50;;;;;;;;;;4147099;28;20038;-62
2023/12/29 06:18:44;;;;;;;53.78;49.30;;;;;;;;;;4147132;28;20457;-60
2023/12/29 06:20:45;;;;;;;64.53;58.58;;;;;;;;;;4146126;28;20069;-60
2023/12/29 06:22:47;;;;;;;56.30;51.47;;;;;;;;;;4144826;28;22217;-61
2023/12/29 06:24:48;;;;;;;55.65;51.28;;;;;;;;;;4140817;28;20132;-60
2023/12/29 06:26:50;;;;;;;52.30;48.60;;;;;;;;;;4142015;28;20055;-61
2023/12/29 06:28:52;;;;;;;51.58;47.83;;;;;;;;;;4138109;28;20042;-61
2023/12/29 06:30:53;;;;;;;51.13;47.37;;;;;;;;;;4147013;28;20413;-60
2023/12/29 06:32:55;;;;;;;62.97;56.53;;;;;;;;;;4147096;28;20128;-61
2023/12/29 06:34:57;;;;;;;60.37;54.73;;;;;;;;;;4119116;28;20074;-61
2023/12/29 06:36:58;;;;;;;60.63;55.60;;;;;;;;;;4142917;28;20041;-60
2023/12/29 06:39:00;;;;;;;60.23;54.77;;;;;;;;;;4147079;28;20069;-61
2023/12/29 06:41:02;;;;;;;50.85;47.22;;;;;;;;;;4147198;28;20120;-61
2023/12/29 06:43:04;;;;;;;49.72;46.33;;;;;;;;;;4147126;28;20041;-61
2023/12/29 06:45:08;;;;;;;55.22;51.15;;;;;;;;;;4146582;28;20053;-60
2023/12/29 06:47:10;;;;;;;60.47;55.17;;;;;;;;;;4148008;28;20405;-61
2023/12/29 06:49:12;;;;;;;;;;;;;;;;;;4150574;28;20046;-60
2023/12/29 06:51:17;;;;;;;53.22;49.25;;;;;;;;;;4150023;28;19921;-61
2023/12/29 06:53:19;;;;;;;53.90;49.47;;;;;;;;;;4155948;28;20153;-61
2023/12/29 06:55:20;;;;;;;66.88;60.35;;;;;;;;;;4149847;28;20049;-60
2023/12/29 06:57:22;;;;;;;63.13;57.53;;;;;;;;;;4150184;28;20099;-61
2023/12/29 06:59:24;;;;;;;58.15;53.53;;;;;;;;;;4149948;28;20335;-60
2023/12/29 07:01:25;;;;;;;53.20;48.55;;;;;;;;;;4149600;28;20033;-61
2023/12/29 07:03:27;;;;;;;57.75;53.25;;;;;;;;;;4149756;28;20423;-61
2023/12/29 07:05:29;;;;;;;55.35;51.30;;;;;;;;;;4149840;28;20088;-61
2023/12/29 07:07:30;;;;;;;54.50;50.03;;;;;;;;;;4132418;28;20514;-61
2023/12/29 07:09:32;;;;;;;60.80;55.22;;;;;;;;;;4158257;28;20038;-60
2023/12/29 07:11:34;;;;;;;60.17;54.90;;;;;;;;;;4149628;28;20046;-61
2023/12/29 07:13:36;;;;;;;54.90;50.53;;;;;;;;;;4149953;28;20045;-61
2023/12/29 07:15:37;;;;;;;52.55;48.55;;;;;;;;;;4149706;28;20112;-61
2023/12/29 07:17:39;;;;;;;52.37;48.37;;;;;;;;;;4149621;28;20034;-61
2023/12/29 07:19:41;;;;;;;56.40;51.90;;;;;;;;;;4149513;28;20042;-60
2023/12/29 07:21:43;;;;;;;75.73;67.63;;;;;;;;;;4149352;28;20034;-61
2023/12/29 07:23:44;;;;;;;60.78;55.35;;;;;;;;;;4149573;28;20779;-61
2023/12/29 07:25:47;;;;;;;54.70;49.78;;;;;;;;;;4149388;28;20053;-60
2023/12/29 07:27:48;;;;;;;44.80;41.88;;;;;;;;;;4149803;28;20042;-60
2023/12/29 07:29:50;;;;;;;61.50;55.55;;;;;;;;;;4149469;28;20048;-61
2023/12/29 07:31:52;;;;;;;77.80;69.80;;;;;;;;;;4149468;28;20483;-60
2023/12/29 07:33:53;;;;;;;141.63;97.17;;;;;;;;;;4149413;28;20069;-61
2023/12/29 07:35:55;;;;;;;154.03;99.70;;;;;;;;;;4149543;28;20294;-61
2023/12/29 07:37:56;;;;;;;140.98;100.47;;;;;;;;;;4149480;28;20092;-61
2023/12/29 07:39:58;;;;;;;88.20;72.32;;;;;;;;;;4149205;28;20124;-60
2023/12/29 07:42:00;;;;;;;68.43;62.17;;;;;;;;;;4149258;28;20508;-60
2023/12/29 07:44:04;;;;;;;49.40;45.72;;;;;;;;;;4149402;28;20331;-60
2023/12/29 07:46:05;;;;;;;43.78;40.88;;;;;;;;;;4149330;28;20132;-60
2023/12/29 07:48:07;;;;;;;44.43;41.87;;;;;;;;;;4149713;28;20034;-60
2023/12/29 07:50:12;;;;;;;44.85;41.75;;;;;;;;;;4149004;28;20044;-60
2023/12/29 07:52:13;;;;;;;51.80;47.47;;;;;;;;;;4153483;28;20552;-60
2023/12/29 07:54:15;;;;;;;61.58;56.13;;;;;;;;;;4151409;28;20042;-61
2023/12/29 07:56:17;;;;;;;59.97;54.58;;;;;;;;;;4149263;28;20129;-60
2023/12/29 07:58:19;;;;;;;63.75;58.45;;;;;;;;;;4133052;28;20569;-60
2023/12/29 08:00:21;;;;;;;64.93;59.37;;;;;;;;;;4148507;28;20402;-61
2023/12/29 08:02:23;;;;;;;50.63;46.97;;;;;;;;;;4148693;28;20332;-61
2023/12/29 08:04:25;;;;;;;49.83;46.20;;;;;;;;;;4148995;28;20569;-61
2023/12/29 08:06:26;;;;;;;50.78;47.03;;;;;;;;;;4148820;28;20136;-61
2023/12/29 08:08:28;;;;;;;48.80;44.95;;;;;;;;;;4135598;28;20038;-61
2023/12/29 08:10:31;;;;;;;53.03;48.58;;;;;;;;;;4156775;28;20057;-61
2023/12/29 08:12:33;;;;;;;43.28;40.58;;;;;;;;;;4148777;28;20489;-61
2023/12/29 08:14:35;;;;;;;46.50;43.08;;;;;;;;;;4148624;28;20038;-61
2023/12/29 08:16:40;;;;;;;52.25;48.28;;;;;;;;;;4148596;28;20049;-60
2023/12/29 08:18:42;;;;;;;47.92;44.25;;;;;;;;;;4148500;28;20456;-61
2023/12/29 08:20:44;;;;;;;49.42;45.92;;;;;;;;;;4116308;28;20071;-61
2023/12/29 08:22:46;;;;;;;47.72;44.53;;;;;;;;;;4148497;28;20088;-61
2023/12/29 08:24:47;;;;;;;43.87;40.73;;;;;;;;;;4148602;28;20053;-60
2023/12/29 08:26:49;;;;;;;42.50;39.40;;;;;;;;;;4148591;28;20429;-61
2023/12/29 08:28:51;;;;;;;43.80;40.80;;;;;;;;;;4148750;28;20346;-61
2023/12/29 08:30:52;;;;;;;63.20;56.97;;;;;;;;;;4148472;28;20556;-61
2023/12/29 08:32:54;;;;;;;58.10;53.17;;;;;;;;;;4148440;28;20070;-61
2023/12/29 08:34:56;;;;;;;53.50;49.43;;;;;;;;;;4148330;28;20660;-60
2023/12/29 08:36:58;;;;;;;52.83;48.65;;;;;;;;;;4148268;28;20121;-61
2023/12/29 08:38:59;;;;;;;49.90;46.27;;;;;;;;;;4148324;28;20077;-60
2023/12/29 08:41:01;;;;;;;54.00;49.90;;;;;;;;;;4148320;28;20497;-61
2023/12/29 08:43:02;;;;;;;51.77;47.87;;;;;;;;;;4148416;28;20037;-60
2023/12/29 08:45:04;;;;;;;51.70;47.80;;;;;;;;;;4148322;28;20460;-61
2023/12/29 08:47:08;;;;;;;55.20;50.65;;;;;;;;;;4148452;28;20037;-61
2023/12/29 08:49:10;;;;;;;55.50;50.30;;;;;;;;;;4148211;28;20049;-60
2023/12/29 08:51:12;;;;;;;56.40;51.60;;;;;;;;;;4130653;28;20050;-61
2023/12/29 08:53:13;;;;;;;57.77;52.43;;;;;;;;;;4156266;28;20452;-60
2023/12/29 08:55:15;;;;;;;53.65;49.20;;;;;;;;;;4147945;28;20765;-61
2023/12/29 08:57:17;;;;;;;52.35;48.13;;;;;;;;;;4148136;28;20054;-61
2023/12/29 08:59:18;;;;;;;54.77;50.47;;;;;;;;;;4148055;28;20049;-61
2023/12/29 09:01:20;;;;;;;53.30;48.92;;;;;;;;;;4130261;28;20102;-61
2023/12/29 09:03:22;;;;;;;53.83;49.15;;;;;;;;;;4147842;28;20057;-61
2023/12/29 09:05:23;;;;;;;55.60;51.37;;;;;;;;;;4147985;28;20060;-61
2023/12/29 09:07:26;;;;;;;57.35;51.50;;;;;;;;;;4148125;28;20045;-61
2023/12/29 09:09:27;;;;;;;;;;;;;;;;;;4160362;28;20057;-60
2023/12/29 09:11:29;;;;;;;56.78;52.00;;;;;;;;;;4148630;28;20267;-61
2023/12/29 09:13:31;;;;;;;68.77;61.97;;;;;;;;;;4148096;28;20046;-61
2023/12/29 09:15:34;;;;;;;58.47;53.08;;;;;;;;;;4130152;28;20109;-60
2023/12/29 09:17:36;;;;;;;;;;;;;;;;;;4148464;28;20072;-61
2023/12/29 09:19:37;;;;;;;55.65;50.83;;;;;;;;;;4147957;28;19921;-61
2023/12/29 09:21:41;;;;;;;53.53;49.28;;;;;;;;;;4147553;28;20513;-61
2023/12/29 09:23:43;;;;;;;52.87;48.37;;;;;;;;;;4147768;28;20502;-60
2023/12/29 09:25:46;;;;;;;49.47;45.53;;;;;;;;;;4147641;28;20288;-61
2023/12/29 09:27:49;;;;;;;50.22;45.58;;;;;;;;;;4147787;28;20114;-61
2023/12/29 09:29:51;;;;;;;46.20;42.80;;;;;;;;;;4147745;28;20080;-60
2023/12/29 09:31:52;;;;;;;55.67;51.08;;;;;;;;;;4147763;28;20056;-61
2023/12/29 09:33:54;;;;;;;69.88;62.60;;;;;;;;;;4147616;28;20426;-61
2023/12/29 09:35:56;;;;;;;65.00;58.87;;;;;;;;;;4147485;28;20088;-61
2023/12/29 09:37:58;;;;;;;42.35;39.08;;;;;;;;;;4147769;28;20285;-61
2023/12/29 09:40:00;;;;;;;50.35;46.45;;;;;;;;;;4147510;28;20156;-61
2023/12/29 09:42:03;;;;;;;41.10;38.90;;;;;;;;;;4147613;28;20038;-61
2023/12/29 09:44:08;;;;;;;45.60;42.47;;;;;;;;;;4147553;28;20485;-61
2023/12/29 09:46:12;;;;;;;46.78;43.47;;;;;;;;;;4138858;28;20126;-60
2023/12/29 09:48:15;;;;;;;49.67;45.70;;;;;;;;;;4147633;28;20128;-61
2023/12/29 09:50:18;;;;;;;47.33;43.83;;;;;;;;;;4147503;28;20440;-60
2023/12/29 09:52:20;;;;;;;50.97;47.28;;;;;;;;;;4152720;28;20095;-61
2023/12/29 09:54:22;;;;;;;47.70;44.30;;;;;;;;;;4151319;28;20140;-61
2023/12/29 09:56:24;;;;;;;52.70;48.72;;;;;;;;;;4147377;28;20053;-61
2023/12/29 09:58:26;;;;;;;52.42;47.90;;;;;;;;;;4129944;28;20081;-61
2023/12/29 10:00:28;;;;;;;57.63;52.77;;;;;;;;;;4132040;28;20042;-61
2023/12/29 10:02:30;;;;;;;57.38;52.80;;;;;;;;;;4147188;28;20380;-61
2023/12/29 10:04:33;;;;;;;55.65;51.15;;;;;;;;;;4147425;28;20045;-61
2023/12/29 10:06:34;;;;;;;;;;;;;;;;;;4147742;28;20052;-60
2023/12/29 10:08:36;;;;;;;55.75;51.50;;;;;;;;;;4152563;28;19921;-61
2023/12/29 10:10:39;;;;;;;61.92;56.95;;;;;;;;;;4138578;28;20046;-61
2023/12/29 10:12:41;;;;;;;59.20;54.50;;;;;;;;;;4147267;28;20132;-61
2023/12/29 10:14:43;;;;;;;57.45;52.35;;;;;;;;;;4147270;28;20057;-60
2023/12/29 10:16:47;;;;;;;49.50;45.72;;;;;;;;;;4118758;28;20094;-61
2023/12/29 10:18:49;;;;;;;38.95;36.70;;;;;;;;;;4143826;28;20041;-61
2023/12/29 10:20:58;;;;;;;42.23;39.67;;;;;;;;;;4147175;28;20038;-61
2023/12/29 10:23:08;;;;;;;41.40;38.65;;;;;;;;;;4149334;28;20289;-61
2023/12/29 10:25:10;;;;;;;48.78;45.00;;;;;;;;;;4150464;28;20034;-61
2023/12/29 10:27:12;;;;;;;58.00;51.50;;;;;;;;;;4128532;28;20082;-61
2023/12/29 10:29:13;;;;;;;55.83;50.97;;;;;;;;;;4141213;28;20296;-61
2023/12/29 10:31:18;;;;;;;52.88;47.80;;;;;;;;;;4141453;28;20292;-61
2023/12/29 10:33:24;;;;;;;72.03;65.20;;;;;;;;;;4150500;28;20077;-61
2023/12/29 10:35:26;;;;;;;57.00;51.53;;;;;;;;;;4150265;28;20299;-61
2023/12/29 10:37:29;;;;;;;49.80;46.05;;;;;;;;;;4150365;28;20038;-61
2023/12/29 10:39:30;;;;;;;44.97;41.67;;;;;;;;;;4150288;28;20116;-61
2023/12/29 10:41:32;;;;;;;53.83;49.55;;;;;;;;;;4150296;28;20128;-61
2023/12/29 10:43:33;;;;;;;54.60;50.03;;;;;;;;;;4148866;28;20077;-61
2023/12/29 10:45:38;;;;;;;54.22;49.75;;;;;;;;;;4148710;28;20050;-60
2023/12/29 10:47:43;;;;;;;82.60;63.78;;;;;;;;;;4136730;28;20045;-61
2023/12/29 10:49:44;;;;;;;68.18;58.30;;;;;;;;;;4150220;28;20079;-61
2023/12/29 10:51:47;;;;;;;76.55;61.83;;;;;;;;;;4133282;28;20522;-61
2023/12/29 10:53:54;;;;;;;55.33;50.55;;;;;;;;;;4144959;28;20071;-61
2023/12/29 10:55:58;;;;;;;58.42;53.70;;;;;;;;;;4147807;28;20080;-61
2023/12/29 10:58:00;;;;;;;48.28;44.67;;;;;;;;;;4147148;28;20038;-61
2023/12/29 11:00:03;;;;;;;51.67;47.53;;;;;;;;;;4144304;28;20072;-61
2023/12/29 11:02:05;;;;;;;55.25;50.55;;;;;;;;;;4149336;28;20414;-61
2023/12/29 11:04:09;;;;;;;55.00;50.58;;;;;;;;;;4132130;28;20159;-61
2023/12/29 11:06:11;;;;;;;55.20;50.45;;;;;;;;;;4141826;28;20514;-61
2023/12/29 11:08:21;;;;;;;53.65;49.00;;;;;;;;;;4136715;28;20034;-61
2023/12/29 11:10:22;;;;;;;56.00;51.50;;;;;;;;;;4143068;28;20493;-61
2023/12/29 11:12:24;;;;;;;54.03;49.05;;;;;;;;;;4141218;28;20033;-61
2023/12/29 11:14:28;;;;;;;47.50;44.15;;;;;;;;;;4132223;28;20050;-61
2023/12/29 11:16:31;;;;;;;38.92;36.47;;;;;;;;;;4149836;28;20045;-61
2023/12/29 11:18:33;;;;;;;36.80;34.70;;;;;;;;;;4149443;28;20034;-61
2023/12/29 11:20:35;;;;;;;37.25;35.00;;;;;;;;;;4149424;28;20052;-61
2023/12/29 11:22:37;;;;;;;41.42;38.47;;;;;;;;;;4149516;28;20089;-61
2023/12/29 11:24:38;;;;;;;37.70;35.40;;;;;;;;;;4149505;28;20045;-61
2023/12/29 11:26:44;;;;;;;48.92;45.53;;;;;;;;;;4149665;28;20045;-61
2023/12/29 11:28:46;;;;;;;47.13;43.90;;;;;;;;;;4134412;28;20070;-61
2023/12/29 11:30:48;;;;;;;53.90;49.28;;;;;;;;;;4149319;28;20038;-62
2023/12/29 11:32:52;;;;;;;51.58;47.00;;;;;;;;;;4149254;28;20046;-61
2023/12/29 11:35:11;;;;;;;49.40;45.80;;;;;;;;;;4149658;28;20041;-61
2023/12/29 11:37:15;;;;;;;45.15;41.83;;;;;;;;;;4145424;28;20057;-61
2023/12/29 11:39:21;;;;;;;49.83;46.17;;;;;;;;;;4143269;28;20046;-61
2023/12/29 11:41:23;;;;;;;38.83;36.55;;;;;;;;;;4132198;28;20089;-61
2023/12/29 11:43:25;;;;;;;34.95;33.13;;;;;;;;;;4149280;28;20099;-61
2023/12/29 11:45:32;;;;;;;31.67;30.17;;;;;;;;;;4149444;28;20077;-61
2023/12/29 11:47:37;;;;;;;38.70;36.58;;;;;;;;;;4134187;28;20046;-60
2023/12/29 11:49:59;;;;;;;34.22;32.28;;;;;;;;;;4145975;28;20141;-61
2023/12/29 11:52:01;;;;;;;30.80;29.33;;;;;;;;;;4151520;28;20505;-61
2023/12/29 11:54:04;;;;;;;28.60;27.33;;;;;;;;;;4152811;28;20567;-61